Time;durP1;ratioP1;P1;durP2;ratioP2;P2;SDS_P1;SDS_P2;PMS_P1;PMS_P2;Temp;Humidity;BMP_temperature;BMP_pressure;BME280_temperature;BME280_humidity;BME280_pressure;Samples;Min_cycle;Max_cycle;Signal;HPM_P1;HPM_P2
2024/02/05 00:00:27;;;;;;;;;4.67;4.67;;;;;15.62;100.00;102285.97;2116527;27;46525;-74
2024/02/05 00:01:28;;;;;;;;;4.67;4.33;;;;;15.70;100.00;102289.41;2114858;27;46853;-73
2024/02/05 00:02:28;;;;;;;;;4.33;2.67;;;;;15.76;100.00;102285.75;2115524;27;48006;-73
2024/02/05 00:03:29;;;;;;;;;6.00;4.33;;;;;15.76;100.00;102289.31;2115417;27;45653;-74
2024/02/05 00:04:29;;;;;;;;;4.67;4.67;;;;;15.77;100.00;102284.84;2116501;27;46148;-74
2024/02/05 00:05:30;;;;;;;;;5.00;4.33;;;;;15.75;100.00;102286.63;2116391;27;46091;-75
2024/02/05 00:06:31;;;;;;;;;6.33;4.33;;;;;15.63;100.00;102284.22;2116658;27;46890;-74
2024/02/05 00:07:31;;;;;;;;;4.25;3.75;;;;;15.64;100.00;102281.50;2102807;28;45841;-73
2024/02/05 00:08:32;;;;;;;;;6.33;4.00;;;;;15.65;100.00;102291.31;2101561;28;46631;-73
2024/02/05 00:09:32;;;;;;;;;3.00;3.00;;;;;15.67;100.00;102292.16;2106580;27;46187;-73
2024/02/05 00:10:33;;;;;;;;;4.00;4.00;;;;;15.68;100.00;102290.34;2106820;27;46898;-74
2024/02/05 00:11:34;;;;;;;;;3.00;3.00;;;;;15.66;100.00;102284.16;2115636;27;46836;-72
2024/02/05 00:12:34;;;;;;;;;3.00;3.00;;;;;15.68;100.00;102288.56;2117597;27;46273;-75
2024/02/05 00:13:35;;;;;;;;;4.67;4.67;;;;;15.70;100.00;102286.72;2116234;27;46342;-74
2024/02/05 00:14:35;;;;;;;;;5.67;5.00;;;;;15.70;100.00;102280.50;2115832;27;46415;-73
2024/02/05 00:15:35;;;;;;;;;4.00;4.00;;;;;15.65;100.00;102279.72;2117356;27;46667;-72
2024/02/05 00:16:36;;;;;;;;;2.00;2.00;;;;;15.57;100.00;102277.13;2115878;27;45821;-74
2024/02/05 00:17:36;;;;;;;;;4.67;4.00;;;;;15.68;100.00;102285.00;2114873;27;46298;-74
2024/02/05 00:18:36;;;;;;;;;5.00;4.00;;;;;15.66;100.00;102279.69;2116279;27;46212;-70
2024/02/05 00:19:37;;;;;;;;;3.67;3.67;;;;;15.68;100.00;102285.00;2115731;27;46764;-75
2024/02/05 00:20:37;;;;;;;;;4.00;4.00;;;;;15.69;100.00;102284.09;2117243;27;45696;-73
2024/02/05 00:21:38;;;;;;;;;2.00;0.33;;;;;15.67;100.00;102277.88;2115718;27;46469;-74
2024/02/05 00:22:39;;;;;;;;;5.33;5.33;;;;;15.68;100.00;102271.63;2116731;27;46194;-73
2024/02/05 00:23:39;;;;;;;;;3.33;3.33;;;;;15.68;100.00;102275.19;2116886;27;46573;-73
2024/02/05 00:24:39;;;;;;;;;4.00;4.00;;;;;15.68;100.00;102275.19;2115830;27;46770;-72
2024/02/05 00:25:39;;;;;;;;;4.33;4.33;;;;;15.67;100.00;102278.78;2117165;27;46730;-73
2024/02/05 00:26:40;;;;;;;;;5.00;3.00;;;;;15.68;100.00;102272.50;2115847;27;46258;-72
2024/02/05 00:27:40;;;;;;;;;5.67;5.67;;;;;15.68;100.00;102271.63;2116107;27;46412;-75
2024/02/05 00:28:41;;;;;;;;;6.00;4.67;;;;;15.70;100.00;102275.16;2116671;27;46056;-71
2024/02/05 00:29:41;;;;;;;;;7.67;7.33;;;;;15.70;100.00;102273.34;2114284;27;46716;-74
2024/02/05 00:30:42;;;;;;;;;22.25;19.00;;;;;15.66;100.00;102277.00;2115591;27;46532;-73
2024/02/05 00:31:42;;;;;;;;;10.00;8.00;;;;;15.61;100.00;102276.19;2116434;27;45639;-74
2024/02/05 00:32:42;;;;;;;;;13.33;13.00;;;;;15.60;100.00;102274.41;2108051;27;45566;-74
2024/02/05 00:33:43;;;;;;;;;12.00;10.67;;;;;15.53;100.00;102276.31;2105600;27;46827;-73
2024/02/05 00:34:43;;;;;;;;;1.00;1.00;;;;;15.54;100.00;102277.19;2116350;27;46901;-72
2024/02/05 00:35:44;;;;;;;;;8.33;7.00;;;;;15.57;100.00;102279.81;2113518;27;45742;-74
2024/02/05 00:36:44;;;;;;;;;7.33;6.33;;;;;15.56;100.00;102273.56;2114721;27;45648;-73
2024/02/05 00:37:44;;;;;;;;;5.67;5.67;;;;;15.53;100.00;102278.97;2116187;27;46825;-72
2024/02/05 00:38:45;;;;;;;;;6.33;5.00;;;;;15.54;100.00;102274.50;2116817;27;46859;-75
2024/02/05 00:39:45;;;;;;;;;7.33;6.33;;;;;15.51;100.00;102277.25;2116590;27;47889;-73
2024/02/05 00:40:47;;;;;;;;;12.33;10.00;;;;;15.53;100.00;102276.31;2116265;27;46656;-70
2024/02/05 00:41:47;;;;;;;;;12.00;10.75;;;;;15.53;100.00;102270.94;2115827;27;45643;-73
2024/02/05 00:42:47;;;;;;;;;10.00;10.00;;;;;15.54;100.00;102278.06;2117349;27;46795;-74
2024/02/05 00:43:48;;;;;;;;;7.67;7.00;;;;;15.46;100.00;102279.09;2116076;27;46987;-73
2024/02/05 00:44:48;;;;;;;;;11.00;7.00;;;;;15.49;100.00;102274.56;2116027;27;46585;-71
2024/02/05 00:45:48;;;;;;;;;8.00;8.00;;;;;15.51;100.00;102271.91;2116668;27;45870;-71
2024/02/05 00:46:49;;;;;;;;;9.67;9.33;;;;;15.51;100.00;102272.78;2116340;27;45624;-73
2024/02/05 00:47:49;;;;;;;;;8.00;6.67;;;;;15.50;100.00;102271.00;2115732;27;46405;-74
2024/02/05 00:48:50;;;;;;;;;7.00;6.00;;;;;15.50;100.00;102275.44;2115593;27;46779;-74
2024/02/05 00:49:50;;;;;;;;;6.00;4.00;;;;;15.46;100.00;102265.72;2114177;27;47031;-73
2024/02/05 00:50:51;;;;;;;;;3.00;3.00;;;;;15.50;100.00;102270.09;2116589;27;46541;-74
2024/02/05 00:51:51;;;;;;;;;6.00;6.00;;;;;15.52;100.00;102269.19;2116385;27;46266;-74
2024/02/05 00:52:51;;;;;;;;;5.00;4.00;;;;;15.64;100.00;102277.94;2114472;27;46083;-74
2024/02/05 00:53:51;;;;;;;;;6.33;6.00;;;;;15.52;100.00;102274.53;2116159;27;46138;-73
2024/02/05 00:54:52;;;;;;;;;4.00;3.67;;;;;15.62;100.00;102271.72;2114849;27;46228;-73
2024/02/05 00:55:52;;;;;;;;;4.00;4.00;;;;;15.60;100.00;102272.63;2116046;27;46903;-73
2024/02/05 00:56:52;;;;;;;;;5.00;5.00;;;;;15.66;100.00;102276.13;2117289;27;46480;-74
2024/02/05 00:57:53;;;;;;;;;4.00;4.00;;;;;15.64;100.00;102273.47;2116217;27;46386;-75
2024/02/05 00:58:54;;;;;;;;;4.67;4.67;;;;;15.69;100.00;102276.94;2117113;27;45691;-74
2024/02/05 00:59:54;;;;;;;;;5.00;4.00;;;;;15.70;100.00;102278.72;2116001;27;47012;-74
2024/02/05 01:00:55;;;;;;;;;4.67;3.67;;;;;15.69;100.00;102281.41;2115556;27;46869;-70
2024/02/05 01:01:55;;;;;;;;;5.00;4.00;;;;;15.69;100.00;102284.97;2116827;27;47053;-74
2024/02/05 01:02:55;;;;;;;;;5.00;4.00;;;;;15.71;100.00;102280.47;2114745;27;46427;-73
2024/02/05 01:03:56;;;;;;;;;4.33;3.00;;;;;15.63;100.00;102281.53;2116151;27;45920;-74
2024/02/05 01:04:56;;;;;;;;;4.00;3.67;;;;;15.63;100.00;102277.06;2115650;27;46715;-74
2024/02/05 01:05:56;;;;;;;;;4.00;4.00;;;;;15.67;100.00;102277.88;2116372;27;46604;-71
2024/02/05 01:06:57;;;;;;;;;3.33;3.33;;;;;15.68;100.00;102268.94;2114908;27;46387;-73
2024/02/05 01:07:57;;;;;;;;;4.00;4.00;;;;;15.68;100.00;102274.31;2114171;27;46117;-74
2024/02/05 01:08:57;;;;;;;;;5.33;4.00;;;;;15.67;100.00;102276.09;2114952;27;46786;-73
2024/02/05 01:09:58;;;;;;;;;3.00;3.00;;;;;15.64;100.00;102275.28;2116888;27;46444;-74
2024/02/05 01:10:59;;;;;;;;;3.50;3.50;;;;;15.63;100.00;102270.84;2116736;27;46671;-75
2024/02/05 01:12:00;;;;;;;;;5.33;4.67;;;;;15.63;100.00;102269.03;2112370;27;46418;-72
2024/02/05 01:13:00;;;;;;;;;5.25;4.25;;;;;15.63;100.00;102269.03;2097200;28;46227;-72
2024/02/05 01:14:01;;;;;;;;;3.00;3.00;;;;;15.66;100.00;102271.66;2097956;28;46357;-72
2024/02/05 01:15:01;;;;;;;;;2.33;2.33;;;;;15.64;100.00;102267.25;2116962;27;46335;-74
2024/02/05 01:16:04;;;;;;;;;3.33;3.00;;;;;15.63;100.00;102269.03;2115718;27;46472;-73
2024/02/05 01:17:05;;;;;;;;;7.00;3.00;;;;;15.65;100.00;102267.22;2115766;27;46847;-75
2024/02/05 01:18:06;;;;;;;;;5.75;3.25;;;;;15.58;100.00;102262.84;2115610;27;46612;-75
2024/02/05 01:19:06;;;;;;;;;4.67;3.00;;;;;15.62;100.00;102258.34;2116731;27;45576;-74
2024/02/05 01:20:10;;;;;;;;;4.00;4.00;;;;;15.60;100.00;102269.94;2117282;27;46029;-74
2024/02/05 01:21:10;;;;;;;;;6.25;5.25;;;;;15.63;100.00;102260.13;2116313;27;47442;-74
2024/02/05 01:22:10;;;;;;;;;2.67;2.00;;;;;15.63;100.00;102265.47;2116003;27;46259;-75
2024/02/05 01:23:11;;;;;;;;;6.00;4.00;;;;;15.61;100.00;102268.16;2106490;27;46606;-74
2024/02/05 01:24:11;;;;;;;;;6.33;3.67;;;;;15.59;100.00;102259.25;2099307;28;46339;-74
2024/02/05 01:25:11;;;;;;;;;3.00;3.00;;;;;15.59;100.00;102262.84;2106485;27;47864;-74
2024/02/05 01:26:12;;;;;;;;;4.33;2.00;;;;;15.62;100.00;102258.34;2115785;27;45654;-76
2024/02/05 01:27:12;;;;;;;;;4.00;4.00;;;;;15.65;100.00;102263.66;2115003;27;46164;-74
2024/02/05 01:28:12;;;;;;;;;5.33;4.33;;;;;15.66;100.00;102260.06;2113578;27;46364;-75
2024/02/05 01:29:13;;;;;;;;;4.00;4.00;;;;;15.64;100.00;102260.09;2116275;27;46157;-75
2024/02/05 01:30:13;;;;;;;;;4.00;4.00;;;;;15.63;100.00;102260.13;2114477;27;45790;-74
2024/02/05 01:31:14;;;;;;;;;3.67;3.67;;;;;15.66;100.00;102252.03;2116761;27;46320;-75
2024/02/05 01:32:15;;;;;;;;;7.00;3.00;;;;;15.67;100.00;102253.81;2115896;27;47190;-73
2024/02/05 01:33:15;;;;;;;;;3.67;2.67;;;;;15.68;100.00;102259.13;2115536;27;46567;-71
2024/02/05 01:34:15;;;;;;;;;4.67;4.00;;;;;15.67;100.00;102253.81;2116145;27;46162;-72
2024/02/05 01:35:16;;;;;;;;;5.33;4.67;;;;;15.65;100.00;102255.63;2115107;27;45889;-73
2024/02/05 01:36:16;;;;;;;;;4.00;4.00;;;;;15.67;100.00;102256.47;2106389;27;45939;-73
2024/02/05 01:37:17;;;;;;;;;3.00;2.67;;;;;15.66;100.00;102254.72;2107786;27;46186;-74
2024/02/05 01:38:18;;;;;;;;;1.67;1.67;;;;;15.66;100.00;102252.03;2116360;27;45622;-74
2024/02/05 01:39:18;;;;;;;;;3.67;3.67;;;;;15.64;100.00;102252.06;2116927;27;46426;-73
2024/02/05 01:40:19;;;;;;;;;3.00;2.67;;;;;15.60;100.00;102255.69;2097482;28;46018;-72
2024/02/05 01:41:19;;;;;;;;;3.00;3.00;;;;;15.58;100.00;102258.38;2098279;28;46393;-71
2024/02/05 01:42:19;;;;;;;;;5.00;4.00;;;;;15.57;100.00;102255.72;2098273;28;46797;-74
2024/02/05 01:43:20;;;;;;;;;7.00;4.67;;;;;15.56;100.00;102256.63;2097962;28;46572;-72
2024/02/05 01:44:20;;;;;;;;;3.00;3.00;;;;;15.57;100.00;102253.94;2097709;28;46934;-74
2024/02/05 01:45:20;;;;;;;;;4.00;4.00;;;;;15.58;100.00;102252.13;2098044;28;46460;-73
2024/02/05 01:46:22;;;;;;;;;4.00;4.00;;;;;15.58;100.00;102252.13;2096733;28;46640;-73
2024/02/05 01:47:22;;;;;;;;;5.25;3.50;;;;;15.60;100.00;102259.25;2097345;28;46926;-73
2024/02/05 01:48:26;;;;;;;;;2.00;2.00;;;;;15.57;100.00;102248.56;2096632;28;47095;-73
2024/02/05 01:49:26;;;;;;;;;3.25;2.25;;;;;15.51;100.00;102253.16;2090118;28;46641;-71
2024/02/05 01:50:27;;;;;;;;;4.67;3.00;;;;;15.51;100.00;102248.69;2088680;28;45330;-71
2024/02/05 01:51:32;;;;;;;;;3.00;3.00;;;;;15.51;100.00;102251.38;2097479;28;46364;-71
2024/02/05 01:52:36;;;;;;;;;7.75;3.75;;;;;15.51;100.00;102246.03;2098168;28;47281;-71
2024/02/05 01:53:39;;;;;;;;;5.25;3.50;;;;;15.54;100.00;102245.97;2097782;28;46197;-73
2024/02/05 01:54:41;;;;;;;;;3.75;2.25;;;;;15.55;100.00;102241.50;2097634;28;46554;-72
2024/02/05 01:55:43;;;;;;;;;3.50;3.00;;;;;15.55;100.00;102247.72;2097719;28;46801;-72
2024/02/05 01:56:44;;;;;;;;;4.25;3.00;;;;;15.55;100.00;102244.16;2089473;28;46361;-72
2024/02/05 01:57:45;;;;;;;;;2.25;2.25;;;;;15.56;100.00;102248.59;2088992;28;46867;-73
2024/02/05 01:58:46;;;;;;;;;5.67;4.00;;;;;15.57;100.00;102240.53;2096956;28;46455;-72
2024/02/05 01:59:46;;;;;;;;;4.67;2.33;;;;;15.54;100.00;102237.94;2097620;28;45969;-73
2024/02/05 02:00:47;;;;;;;;;4.00;3.00;;;;;15.54;100.00;102250.44;2089648;28;46483;-72
2024/02/05 02:01:48;;;;;;;;;3.25;3.25;;;;;15.51;100.00;102245.13;2089230;28;46848;-72
2024/02/05 02:02:48;;;;;;;;;3.67;3.00;;;;;15.50;100.00;102251.38;2079378;28;47769;-74
2024/02/05 02:03:49;;;;;;;;;3.67;2.33;;;;;15.49;100.00;102241.59;2081194;28;46798;-73
2024/02/05 02:04:50;;;;;;;;;2.67;2.67;;;;;15.55;100.00;102249.50;2098214;28;46705;-72
2024/02/05 02:05:50;;;;;;;;;1.33;1.33;;;;;15.56;100.00;102244.13;2097623;28;45867;-73
2024/02/05 02:06:51;;;;;;;;;3.00;3.00;;;;;15.58;100.00;102247.66;2098120;28;46625;-73
2024/02/05 02:07:51;;;;;;;;;3.67;3.67;;;;;15.57;100.00;102245.91;2097335;28;46211;-72
2024/02/05 02:08:52;;;;;;;;;3.00;2.67;;;;;15.57;100.00;102237.88;2090013;28;46216;-72
2024/02/05 02:09:53;;;;;;;;;2.00;2.00;;;;;15.58;100.00;102247.66;2088810;28;46745;-72
2024/02/05 02:10:53;;;;;;;;;3.00;3.00;;;;;15.53;100.00;102249.56;2097872;28;47292;-73
2024/02/05 02:11:53;;;;;;;;;4.00;4.00;;;;;15.55;100.00;102247.72;2103646;27;46590;-72
2024/02/05 02:12:54;;;;;;;;;3.33;3.33;;;;;15.55;100.00;102242.38;2115569;27;45950;-73
2024/02/05 02:13:54;;;;;;;;;6.00;4.00;;;;;15.55;100.00;102242.38;2115806;27;46570;-72
2024/02/05 02:14:55;;;;;;;;;1.67;1.67;;;;;15.58;100.00;102239.63;2115360;27;46292;-73
2024/02/05 02:15:57;;;;;;;;;2.67;2.67;;;;;15.60;100.00;102244.97;2114819;27;47104;-72
2024/02/05 02:16:58;;;;;;;;;4.00;2.75;;;;;15.50;100.00;102241.59;2115439;27;46094;-72
2024/02/05 02:18:02;;;;;;;;;5.00;3.00;;;;;15.47;100.00;102244.28;2115368;27;46649;-72
2024/02/05 02:19:08;;;;;;;;;3.00;3.00;;;;;15.44;100.00;102241.69;2114101;27;46608;-74
2024/02/05 02:20:10;;;;;;;;;4.75;3.50;;;;;15.46;100.00;102239.84;2115889;27;46460;-73
2024/02/05 02:21:14;;;;;;;;;3.00;3.00;;;;;15.45;100.00;102243.44;2116159;27;45715;-71
2024/02/05 02:22:43;;;;;;;;;4.00;3.25;;;;;15.48;100.00;102240.69;2115313;27;46756;-73
2024/02/05 02:23:44;;;;;;;;;3.50;3.00;;;;;15.47;100.00;102241.63;2116042;27;47695;-71
2024/02/05 02:24:45;;;;;;;;;2.00;2.00;;;;;15.48;100.00;102239.81;2115113;27;46309;-71
2024/02/05 02:25:50;;;;;;;;;2.00;2.00;;;;;15.48;100.00;102239.81;2115050;27;46937;-73
2024/02/05 02:26:50;;;;;;;;;4.00;2.00;;;;;15.48;100.00;102234.47;2114732;27;46745;-71
2024/02/05 02:27:51;;;;;;;;;1.67;1.67;;;;;15.48;100.00;102235.34;2115422;27;46890;-72
2024/02/05 02:28:51;;;;;;;;;4.67;3.00;;;;;15.60;100.00;102242.31;2114704;27;45963;-74
2024/02/05 02:29:51;;;;;;;;;3.00;3.00;;;;;15.64;100.00;102238.69;2101303;28;46526;-69
2024/02/05 02:30:53;;;;;;;;;3.00;3.00;;;;;15.58;100.00;102239.63;2100116;28;46478;-72
2024/02/05 02:32:07;;;;;;;;;4.25;4.00;;;;;15.58;100.00;102238.75;2115759;27;47962;-71
2024/02/05 02:33:31;;;;;;;;;2.75;2.75;;;;;15.62;100.00;102239.59;2115153;27;46653;-72
2024/02/05 02:34:33;;;;;;;;;2.50;2.50;;;;;15.60;100.00;102240.50;2113968;27;45949;-72
2024/02/05 02:35:50;;;;;;;;;4.00;2.00;;;;;15.55;100.00;102233.47;2097940;28;46705;-72
2024/02/05 02:37:00;;;;;;;;;2.75;2.75;;;;;15.54;100.00;102239.72;2103574;27;45580;-72
2024/02/05 02:38:13;;;;;;;;;3.50;2.00;;;;;15.57;100.00;102237.88;2116967;27;45193;-71
2024/02/05 02:39:27;;;;;;;;;2.25;2.00;;;;;15.53;100.00;102235.28;2115588;27;46855;-73
2024/02/05 02:40:30;;;;;;;;;4.25;3.00;;;;;15.49;100.00;102242.47;2106819;27;46382;-72
2024/02/05 02:41:36;;;;;;;;;3.00;2.00;;;;;15.54;100.00;102237.94;2107073;27;46274;-72
2024/02/05 02:42:42;;;;;;;;;2.00;2.00;;;;;15.46;100.00;102238.97;2116159;27;46958;-72
2024/02/05 02:43:53;;;;;;;;;1.25;1.25;;;;;15.49;100.00;102237.13;2115986;27;47082;-72
2024/02/05 02:44:55;;;;;;;;;5.50;2.00;;;;;15.43;100.00;102239.03;2116166;27;46549;-74
2024/02/05 02:45:56;;;;;;;;;4.75;3.00;;;;;15.41;100.00;102236.38;2115481;27;46653;-71
2024/02/05 02:47:00;;;;;;;;;2.25;2.25;;;;;15.43;100.00;102236.34;2115596;27;46454;-74
2024/02/05 02:48:01;;;;;;;;;5.75;1.50;;;;;15.40;100.00;102242.66;2115635;27;45799;-72
2024/02/05 02:49:01;;;;;;;;;3.00;3.00;;;;;15.41;100.00;102233.72;2115712;27;46208;-72
2024/02/05 02:50:03;;;;;;;;;3.00;2.00;;;;;15.41;100.00;102239.06;2115810;27;46641;-72
2024/02/05 02:51:04;;;;;;;;;1.00;1.00;;;;;15.43;100.00;102239.03;2113868;27;46476;-71
2024/02/05 02:52:04;;;;;;;;;2.00;2.00;;;;;15.42;100.00;102231.91;2115728;27;46170;-75
2024/02/05 02:53:04;;;;;;;;;3.00;3.00;;;;;15.46;100.00;102234.50;2114081;27;46494;-71
2024/02/05 02:54:05;;;;;;;;;4.67;3.00;;;;;15.45;100.00;102237.22;2115842;27;46565;-75
2024/02/05 02:55:06;;;;;;;;;2.00;2.00;;;;;15.42;100.00;102240.81;2116094;27;46863;-71
2024/02/05 02:56:06;;;;;;;;;4.00;2.00;;;;;15.51;100.00;102240.66;2116697;27;46726;-73
2024/02/05 02:57:07;;;;;;;;;5.00;4.00;;;;;15.54;100.00;102232.59;2115864;27;46673;-73
2024/02/05 02:58:07;;;;;;;;;2.00;2.00;;;;;15.50;100.00;102238.00;2115606;27;46091;-72
2024/02/05 02:59:09;;;;;;;;;3.67;2.33;;;;;15.50;100.00;102238.00;2116385;27;46208;-72
2024/02/05 03:00:12;;;;;;;;;2.00;2.00;;;;;15.52;100.00;102237.09;2114765;27;46463;-71
2024/02/05 03:01:12;;;;;;;;;4.00;2.00;;;;;15.50;100.00;102236.22;2115910;27;46724;-73
2024/02/05 03:02:13;;;;;;;;;3.00;2.00;;;;;15.48;100.00;102231.78;2116136;27;47265;-73
2024/02/05 03:03:13;;;;;;;;;1.00;1.00;;;;;15.46;100.00;102231.81;2105611;27;46664;-73
2024/02/05 03:04:14;;;;;;;;;3.33;2.67;;;;;15.46;100.00;102220.25;2104094;27;46604;-73
2024/02/05 03:05:14;;;;;;;;;1.00;1.00;;;;;15.45;100.00;102224.72;2114982;27;46333;-73
2024/02/05 03:06:14;;;;;;;;;4.00;3.00;;;;;15.49;100.00;102233.56;2115578;27;46243;-72
2024/02/05 03:07:15;;;;;;;;;5.00;3.33;;;;;15.45;100.00;102222.03;2114670;27;46311;-73
2024/02/05 03:08:15;;;;;;;;;1.67;1.67;;;;;15.42;100.00;102231.91;2113824;27;46273;-73
2024/02/05 03:09:15;;;;;;;;;2.67;2.67;;;;;15.43;100.00;102229.22;2106494;27;46560;-73
2024/02/05 03:10:15;;;;;;;;;3.00;3.00;;;;;15.45;100.00;102227.38;2106829;27;46248;-73
2024/02/05 03:11:16;;;;;;;;;3.00;1.00;;;;;15.35;100.00;102228.44;2115377;27;48233;-73
2024/02/05 03:12:16;;;;;;;;;2.00;2.00;;;;;15.26;100.00;102229.50;2115448;27;46311;-74
2024/02/05 03:13:17;;;;;;;;;1.00;1.00;;;;;15.38;100.00;102225.75;2097347;28;46058;-74
2024/02/05 03:14:18;;;;;;;;;3.00;2.00;;;;;15.36;100.00;102232.00;2097742;28;48071;-72
2024/02/05 03:15:19;;;;;;;;;3.00;1.00;;;;;15.44;100.00;102228.28;2115489;27;46750;-74
2024/02/05 03:16:20;;;;;;;;;2.00;2.00;;;;;15.46;100.00;102229.16;2115452;27;46394;-73
2024/02/05 03:17:20;;;;;;;;;4.33;2.33;;;;;15.47;100.00;102227.34;2116355;27;46651;-73
2024/02/05 03:18:21;;;;;;;;;1.33;1.33;;;;;15.47;100.00;102222.00;2117092;27;46794;-72
2024/02/05 03:19:21;;;;;;;;;2.00;2.00;;;;;15.48;100.00;102229.13;2117318;27;46415;-73
2024/02/05 03:20:36;;;;;;;;;2.67;2.67;;;;;15.38;100.00;102230.22;2118034;27;45905;-73
2024/02/05 03:21:36;;;;;;;;;2.00;2.00;;;;;15.34;100.00;102228.47;2115638;27;46742;-74
2024/02/05 03:22:36;;;;;;;;;2.67;2.67;;;;;15.43;100.00;102222.97;2116831;27;46792;-71
2024/02/05 03:23:36;;;;;;;;;3.00;1.67;;;;;15.43;100.00;102225.66;2116258;27;46259;-72
2024/02/05 03:24:37;;;;;;;;;2.00;2.00;;;;;15.37;100.00;102229.31;2116319;27;46160;-73
2024/02/05 03:25:39;;;;;;;;;3.00;2.00;;;;;15.43;100.00;102228.31;2114326;27;46683;-72
2024/02/05 03:26:39;;;;;;;;;1.75;1.75;;;;;15.38;100.00;102223.06;2117246;27;46446;-71
2024/02/05 03:27:40;;;;;;;;;2.00;2.00;;;;;15.34;100.00;102223.13;2116468;27;46872;-73
2024/02/05 03:28:40;;;;;;;;;2.25;2.25;;;;;15.54;100.00;102213.84;2117546;27;46417;-72
2024/02/05 03:29:41;;;;;;;;;2.00;2.00;;;;;15.45;100.00;102224.72;2117428;27;46515;-73
2024/02/05 03:30:42;;;;;;;;;2.00;1.67;;;;;15.49;100.00;102218.38;2115119;27;45987;-72
2024/02/05 03:31:43;;;;;;;;;3.25;2.00;;;;;15.44;100.00;102219.38;2116019;27;46614;-73
2024/02/05 03:32:43;;;;;;;;;0.00;0.00;;;;;15.45;100.00;102219.34;2117140;27;45682;-73
2024/02/05 03:33:43;;;;;;;;;1.00;1.00;;;;;15.40;100.00;102220.38;2116424;27;46169;-74
2024/02/05 03:34:44;;;;;;;;;2.00;1.00;;;;;15.48;100.00;102215.75;2116618;27;46512;-72
2024/02/05 03:35:44;;;;;;;;;4.67;3.00;;;;;15.48;100.00;102213.06;2116544;27;46808;-71
2024/02/05 03:36:45;;;;;;;;;4.00;2.33;;;;;15.49;100.00;102221.06;2115830;27;46703;-73
2024/02/05 03:37:45;;;;;;;;;2.00;2.00;;;;;15.48;100.00;102213.94;2116386;27;46735;-73
2024/02/05 03:38:45;;;;;;;;;2.33;2.33;;;;;15.45;100.00;102214.00;2115404;27;46479;-75
2024/02/05 03:39:46;;;;;;;;;1.00;1.00;;;;;15.44;100.00;102220.28;2116302;27;45849;-74
2024/02/05 03:40:46;;;;;;;;;3.33;2.00;;;;;15.41;100.00;102220.34;2116373;27;46588;-75
2024/02/05 03:41:46;;;;;;;;;3.33;1.67;;;;;15.39;100.00;102210.56;2115777;27;46295;-70
2024/02/05 03:42:48;;;;;;;;;1.00;1.00;;;;;15.41;100.00;102219.44;2116521;27;46937;-73
2024/02/05 03:43:48;;;;;;;;;3.25;1.00;;;;;15.48;100.00;102216.63;2114712;27;46510;-74
2024/02/05 03:44:49;;;;;;;;;3.33;2.00;;;;;15.51;100.00;102216.59;2116639;27;46334;-74
2024/02/05 03:45:49;;;;;;;;;2.33;2.33;;;;;15.53;100.00;102216.56;2117187;27;47175;-75
2024/02/05 03:46:49;;;;;;;;;5.00;1.33;;;;;15.54;100.00;102210.28;2116089;27;45699;-73
2024/02/05 03:47:50;;;;;;;;;2.00;2.00;;;;;15.55;100.00;102222.75;2116001;27;46273;-72
2024/02/05 03:48:54;;;;;;;;;2.00;2.00;;;;;15.55;100.00;102223.63;2116434;27;46573;-73
2024/02/05 03:49:55;;;;;;;;;3.50;2.00;;;;;15.55;100.00;102220.09;2115798;27;46377;-72
2024/02/05 03:50:56;;;;;;;;;3.67;2.00;;;;;15.56;100.00;102225.41;2116353;27;46196;-72
2024/02/05 03:51:56;;;;;;;;;2.00;2.00;;;;;15.55;100.00;102222.75;2116767;27;46266;-72
2024/02/05 03:52:56;;;;;;;;;2.33;2.00;;;;;15.55;100.00;102225.44;2116819;27;46459;-72
2024/02/05 03:53:57;;;;;;;;;2.00;2.00;;;;;15.52;100.00;102217.47;2107535;27;46378;-73
2024/02/05 03:54:57;;;;;;;;;2.67;2.67;;;;;15.48;100.00;102223.75;2107668;27;47107;-73
2024/02/05 03:55:58;;;;;;;;;3.67;2.00;;;;;15.50;100.00;102217.50;2117091;27;47109;-73
2024/02/05 03:56:58;;;;;;;;;1.50;1.50;;;;;15.47;100.00;102219.31;2116749;27;45804;-73
2024/02/05 03:58:02;;;;;;;;;2.00;1.00;;;;;15.40;100.00;102210.53;2116879;27;45092;-73
2024/02/05 03:59:02;;;;;;;;;1.25;1.25;;;;;15.44;100.00;102222.94;2116834;27;46606;-73
2024/02/05 04:00:04;;;;;;;;;2.67;2.67;;;;;15.43;100.00;102218.50;2116104;27;45865;-73
2024/02/05 04:01:05;;;;;;;;;2.75;2.25;;;;;15.38;100.00;102217.72;2116177;27;46887;-72
2024/02/05 04:02:06;;;;;;;;;3.25;2.00;;;;;15.33;100.00;102216.91;2115126;27;46552;-73
2024/02/05 04:03:06;;;;;;;;;2.50;1.50;;;;;15.31;100.00;102218.72;2117253;27;45962;-73
2024/02/05 04:04:07;;;;;;;;;1.00;1.00;;;;;15.43;100.00;102218.50;2116508;27;46190;-74
2024/02/05 04:05:08;;;;;;;;;6.00;1.00;;;;;15.42;100.00;102219.41;2117032;27;46607;-74
2024/02/05 04:06:09;;;;;;;;;1.00;1.00;;;;;15.49;100.00;102220.19;2115980;27;45793;-74
2024/02/05 04:07:09;;;;;;;;;2.00;2.00;;;;;15.42;100.00;102208.72;2116544;27;46425;-73
2024/02/05 04:08:09;;;;;;;;;2.67;2.67;;;;;15.40;100.00;102210.53;2116517;27;46518;-71
2024/02/05 04:09:10;;;;;;;;;3.00;3.00;;;;;15.41;100.00;102216.78;2116784;27;46840;-74
2024/02/05 04:10:10;;;;;;;;;4.00;1.00;;;;;15.40;100.00;102209.66;2116597;27;46352;-73
2024/02/05 04:11:10;;;;;;;;;3.00;1.00;;;;;15.34;100.00;102210.63;2116673;27;46637;-73
2024/02/05 04:12:11;;;;;;;;;2.00;2.00;;;;;15.39;100.00;102210.56;2116887;27;45165;-74
2024/02/05 04:13:11;;;;;;;;;3.00;2.00;;;;;15.39;100.00;102207.91;2116930;27;46170;-75
2024/02/05 04:14:12;;;;;;;;;2.00;2.00;;;;;15.37;100.00;102209.69;2116390;27;46262;-72
2024/02/05 04:15:12;;;;;;;;;1.33;1.33;;;;;15.38;100.00;102209.69;2107484;27;46568;-74
2024/02/05 04:16:13;;;;;;;;;1.67;1.67;;;;;15.38;100.00;102211.50;2108001;27;46832;-72
2024/02/05 04:17:14;;;;;;;;;1.50;1.50;;;;;15.39;100.00;102213.25;2113526;27;46706;-74
2024/02/05 04:18:14;;;;;;;;;4.00;2.00;;;;;15.39;100.00;102214.13;2116085;27;46698;-73
2024/02/05 04:19:15;;;;;;;;;1.00;1.00;;;;;15.40;100.00;102210.53;2116970;27;46783;-73
2024/02/05 04:20:16;;;;;;;;;2.25;2.25;;;;;15.41;100.00;102206.97;2116739;27;46539;-73
2024/02/05 04:21:16;;;;;;;;;2.33;2.00;;;;;15.43;100.00;102205.13;2117097;27;46309;-73
2024/02/05 04:22:16;;;;;;;;;2.00;1.00;;;;;15.41;100.00;102204.28;2107060;27;46117;-73
2024/02/05 04:23:17;;;;;;;;;1.00;1.00;;;;;15.40;100.00;102205.19;2107571;27;46499;-74
2024/02/05 04:24:18;;;;;;;;;2.00;2.00;;;;;15.44;100.00;102208.69;2116546;27;46536;-74
2024/02/05 04:25:20;;;;;;;;;2.50;2.50;;;;;15.42;100.00;102203.38;2116581;27;45499;-73
2024/02/05 04:26:22;;;;;;;;;1.75;1.25;;;;;15.44;100.00;102204.22;2115851;27;45708;-75
2024/02/05 04:27:22;;;;;;;;;2.00;2.00;;;;;15.53;100.00;102205.84;2115920;27;48008;-74
2024/02/05 04:28:23;;;;;;;;;1.33;1.33;;;;;15.58;100.00;102194.13;2089778;28;46786;-73
2024/02/05 04:29:24;;;;;;;;;4.00;2.33;;;;;15.47;100.00;102204.16;2090067;28;46251;-74
2024/02/05 04:30:29;;;;;;;;;4.00;2.75;;;;;15.54;100.00;102194.25;2115871;27;46193;-75
2024/02/05 04:31:29;;;;;;;;;2.00;2.00;;;;;15.56;100.00;102203.13;2116629;27;46236;-74
2024/02/05 04:32:31;;;;;;;;;2.00;2.00;;;;;15.46;100.00;102202.41;2116236;27;47134;-73
2024/02/05 04:33:31;;;;;;;;;1.00;1.00;;;;;15.40;100.00;102205.19;2114056;27;47029;-73
2024/02/05 04:34:32;;;;;;;;;2.00;2.00;;;;;15.36;100.00;102199.91;2116600;27;46607;-75
2024/02/05 04:35:32;;;;;;;;;3.00;3.00;;;;;15.52;100.00;102207.66;2115360;27;46871;-73
2024/02/05 04:36:32;;;;;;;;;2.67;2.67;;;;;15.48;100.00;102205.03;2117053;27;46232;-72
2024/02/05 04:37:33;;;;;;;;;1.00;1.00;;;;;15.40;100.00;102209.66;2116830;27;46568;-74
2024/02/05 04:38:33;;;;;;;;;4.00;2.00;;;;;15.38;100.00;102208.81;2116273;27;45596;-74
2024/02/05 04:39:33;;;;;;;;;2.33;2.00;;;;;15.40;100.00;102207.00;2107482;27;46201;-73
2024/02/05 04:40:34;;;;;;;;;3.00;2.00;;;;;15.39;100.00;102207.91;2107502;27;46226;-75
2024/02/05 04:41:34;;;;;;;;;2.00;1.67;;;;;15.37;100.00;102212.38;2115479;27;46635;-75